Terminal Aerodrome Forecast
Issued by NWS King Salmon, AK

Home | Current Version | Previous Version | Text Only | Print | Product List | Glossary On
Versions: 1 2 3 4 5 6 7 8 9 10 11 12 13 14 15 16 17 18 19 20 21 22
000
FTAK31 PANC 250541
TAFAKN
TAF
PAKN 250541Z 2506/2606 27015G22KT 6SM BR VCSH SCT015 OVC050
      TEMPO 2508/2512 27010KT BKN025
     FM251200 26006KT 6SM BR OVC025
     FM251800 VRB04KT P6SM BKN050
     FM260300 16010KT 6SM BR OVC015=

USA.gov is the U.S. government's official web portal to all federal, state and local government web resources and services.